Terminal Aerodrome Forecast
Issued by NWS Wilmington, NC

Home | Current Version | Previous Version | Text Only | Print | Product List | Glossary On
Versions: 1 2 3 4 5 6 7 8 9 10 11 12 13 14 15 16 17 18 19 20 21 22 23 24 25 26 27 28 29 30
000
FTUS42 KILM 242300
TAFLBT
TAF
KLBT 242332Z 2500/2524 24005KT P6SM VCTS SCT040CB BKN120
      TEMPO 2500/2503 6SM -TSRA
     FM250300 25003KT P6SM SCT050 SCT100 BKN250
     FM250700 VRB03KT 3SM BR FEW040 SCT090
      TEMPO 2509/2512 1SM BR BKN002
     FM251400 03005KT P6SM VCSH SCT050 SCT100=

USA.gov is the U.S. government's official web portal to all federal, state and local government web resources and services.